Accueil
METAR-TAF:

METAR-TAF

Aéroports :

Aéroport de Parme

Parme, Italie

latitude: 44-49-17N, longitude: 010-17-41E, altitude: 50 m

Observation

Le bulletin a été fait il y a 2 heures et 35 minutes, à 22:50 UTC
Vent 3 kt de sud-ouest
Température 15°C
Humidité 88%
Pression 1016 hPa
Visibilité 10 km ou plus
Quelques nuages à une hauteur de 5000 ft

METAR: LIMP 202250Z 23003KT 9999 FEW050 15/13 Q1016

Heure: 03:25 (01:25 UTC)

Prévision

Le bulletin a été fait il y a 8 heures et 25 minutes, à 17:00 UTC
Prévision valable du 20 à 18 UTC au 21 à 18 UTC
Vent 5 kt de direction variable
Visibilité 10 km ou plus
Nuages épars à une hauteur de 5000 ft
Temporairement
du 20 à 18 UTC au 20 à 21 UTC
Visibilité: 4000 m
orage, pluie

TAF: LIMP 201700Z 2018/2118 VRB05KT 9999 SCT050 TEMPO 2018/2021 4000 TSRA

Observations et prévisions météorologiques de plus de 4000 aéroports (messages METAR et TAF).

Les stations disponibles sont représentées par des disques jaunes et rouges sur la carte.

Passer la souris dessus pour voir le nom de la station.

Cliquer dessus pour voir les observations et prévisions météorologiques.

Pour changer de carte: cliquez sur les boutons verts avec une croix noire pour zoomer, sur le bouton vert avec un tiret pour effectuer un zoom arrière, ou sur les flèches vertes pour les cartes adjacentes.


METAR-TAF: